Galeão - Antônio Carlos Jobim International Airport
SBGL : now visible

Airfield :











YOU CAN JOIN US ON...

 
LOGIN :

Register | Disclaimer

   EN    FR    IT 

 









Legend :    VFR   Marginal VFR   IFR   Intensive IFR   Very Intensive IFR
Visi :
Ceiling :
>= 8 km
>= 3000ft
5 to 8 km
1000 to 3000 ft
1500m to 5 km
500 to 1000 ft
800 to 1500m
200 to 500 ft
< 800m
< 200 ft
Symbols :   Thunderstorms  Fog  Heavy snow  Heavy precipitations  Wind > 20 kt






- Airport Elevation : 28 ft
- IATA code : GIG


SBGL - Galeão - Antônio Carlos Jobim International

CURRENT METAR :
  • 040800Z 26005KT 9999 SCT020 21/17 Q1009

EXPIRED METARs :
  • 040700Z 27006KT 9999 SCT020 22/17 Q1009
  • 040600Z 27007KT 9999 FEW020 23/17 Q1009

TAF TAF SBGL
Valid from the 04 at 06:00 until the 05 at 12:00 UTC


040300Z 0406/0512 25005KT 9999 SCT030 TX29/0416Z TN22/0507Z
BECMG 0411/0413 29005KT
BECMG 0414/0416 22010KT
BECMG 0501/0503 26005KT FEW020
BECMG 0504/0506 29005KT FEW015 RMK PHD



MET'MAP, your aeronautical weather chart ! - Copyright ORBIFLY December 2007 - Disclaimer

ORBIFLY MET'MAP TEAM :

Programming & Development : Alexandra Zaïnal
Concept & original design : Baudouin d'Aumeries
Assistance for programming : Marc-Olivier Méhu
Technical & hardware support : Manuel Goepfert

Contact : metmap@orbifly.com




SOURCES & CREDITS :

   NOAA       Earth
Advisory